AAL282 KBNA-KMSP
Flight info
| Callsign | AAL282 |
|---|---|
| Flight time | 1h 53m |
| Altitude | 37000 |
| Route | KRSTA4 OLSIE IIU/N0460F360 J89 OBK KAMMA KKILR4 |
| Aircraft | B738/M-SDE2E3FGHIRWXY/LB1 |
Departure
| Time | 2026-05-04 00:17 |
|---|---|
| Airport | Nashville International Airport (KBNA) |
Arrival
| Time | 2026-05-04 02:10 |
|---|---|
| Airport | Minneapolis–Saint Paul International Airport / Wold–Chamberlain Field (KMSP) |
| Time | Latitude | Longitude | Altitude | Speed | Heading |
|---|---|---|---|---|---|
| 2026-05-03 23:59 | 36.12950 | -86.67100 | 568 ft | 0 kts | 131° |
| 2026-05-04 00:08 | 36.12965 | -86.67120 | 572 ft | 4 kts | 135° |
| 2026-05-04 00:09 | 36.12985 | -86.67142 | 571 ft | 4 kts | 141° |
| 2026-05-04 00:09 | 36.13006 | -86.67163 | 574 ft | 4 kts | 142° |
| 2026-05-04 00:09 | 36.13026 | -86.67184 | 574 ft | 4 kts | 116° |
| 2026-05-04 00:09 | 36.13029 | -86.67198 | 574 ft | 1 kts | 73° |
| 2026-05-04 00:11 | 36.13030 | -86.67194 | 573 ft | 2 kts | 72° |
| 2026-05-04 00:11 | 36.13053 | -86.67170 | 568 ft | 8 kts | 11° |
| 2026-05-04 00:12 | 36.13118 | -86.67190 | 570 ft | 11 kts | 343° |
| 2026-05-04 00:12 | 36.13168 | -86.67250 | 574 ft | 11 kts | 283° |
| 2026-05-04 00:12 | 36.13185 | -86.67339 | 575 ft | 11 kts | 291° |
| 2026-05-04 00:12 | 36.13250 | -86.67364 | 568 ft | 11 kts | 4° |
| 2026-05-04 00:13 | 36.13328 | -86.67342 | 568 ft | 12 kts | 19° |
| 2026-05-04 00:13 | 36.13411 | -86.67310 | 568 ft | 13 kts | 18° |
| 2026-05-04 00:13 | 36.13491 | -86.67330 | 568 ft | 13 kts | 295° |
| 2026-05-04 00:13 | 36.13520 | -86.67451 | 569 ft | 16 kts | 287° |
| 2026-05-04 00:14 | 36.13552 | -86.67576 | 571 ft | 15 kts | 287° |
| 2026-05-04 00:14 | 36.13582 | -86.67692 | 575 ft | 12 kts | 287° |
| 2026-05-04 00:14 | 36.13644 | -86.67726 | 581 ft | 11 kts | 15° |
| 2026-05-04 00:14 | 36.13718 | -86.67705 | 578 ft | 10 kts | 350° |
| 2026-05-04 00:15 | 36.13743 | -86.67741 | 577 ft | 1 kts | 289° |
| 2026-05-04 00:15 | 36.13743 | -86.67742 | 577 ft | 0 kts | 289° |
| 2026-05-04 00:15 | 36.13751 | -86.67769 | 582 ft | 9 kts | 289° |
| 2026-05-04 00:15 | 36.13757 | -86.67854 | 581 ft | 9 kts | 242° |
| 2026-05-04 00:16 | 36.13727 | -86.67880 | 578 ft | 2 kts | 199° |
| 2026-05-04 00:16 | 36.13524 | -86.67960 | 574 ft | 69 kts | 198° |
| 2026-05-04 00:16 | 36.12828 | -86.68231 | 575 ft | 138 kts | 198° |
| 2026-05-04 00:16 | 36.11759 | -86.68630 | 849 ft | 172 kts | 194° |
| 2026-05-04 00:17 | 36.10553 | -86.69041 | 1587 ft | 186 kts | 205° |
| 2026-05-04 00:17 | 36.09613 | -86.70229 | 2014 ft | 207 kts | 244° |
| 2026-05-04 00:17 | 36.08940 | -86.71884 | 2358 ft | 229 kts | 240° |
| 2026-05-04 00:17 | 36.08115 | -86.73662 | 2789 ft | 245 kts | 239° |
| 2026-05-04 00:18 | 36.07244 | -86.75507 | 3552 ft | 248 kts | 242° |
| 2026-05-04 00:18 | 36.06789 | -86.77552 | 4352 ft | 252 kts | 269° |
| 2026-05-04 00:18 | 36.07128 | -86.79664 | 5225 ft | 253 kts | 292° |
| 2026-05-04 00:18 | 36.08147 | -86.81452 | 5939 ft | 261 kts | 317° |
| 2026-05-04 00:19 | 36.09736 | -86.82547 | 6687 ft | 267 kts | 342° |
| 2026-05-04 00:19 | 36.11600 | -86.82632 | 7400 ft | 275 kts | 9° |
| 2026-05-04 00:19 | 36.13389 | -86.81727 | 8148 ft | 281 kts | 26° |
| 2026-05-04 00:19 | 36.15075 | -86.80481 | 8899 ft | 284 kts | 29° |
| 2026-05-04 00:20 | 36.16753 | -86.79175 | 9648 ft | 285 kts | 29° |
| 2026-05-04 00:20 | 36.18438 | -86.77852 | 10292 ft | 291 kts | 29° |
| 2026-05-04 00:20 | 36.20211 | -86.76471 | 10492 ft | 312 kts | 29° |
| 2026-05-04 00:20 | 36.22117 | -86.74996 | 10665 ft | 333 kts | 28° |
| 2026-05-04 00:21 | 36.24117 | -86.73457 | 10824 ft | 353 kts | 28° |
| 2026-05-04 00:21 | 36.26260 | -86.71811 | 10966 ft | 371 kts | 28° |
| 2026-05-04 00:21 | 36.28493 | -86.70097 | 11265 ft | 383 kts | 28° |
| 2026-05-04 00:21 | 36.30769 | -86.68349 | 11850 ft | 385 kts | 28° |
| 2026-05-04 00:22 | 36.33045 | -86.66600 | 12481 ft | 387 kts | 28° |
| 2026-05-04 00:22 | 36.35346 | -86.64833 | 13084 ft | 390 kts | 28° |
| 2026-05-04 00:22 | 36.37661 | -86.63057 | 13684 ft | 393 kts | 28° |
| 2026-05-04 00:22 | 36.39996 | -86.61267 | 14260 ft | 396 kts | 28° |
| 2026-05-04 00:23 | 36.42350 | -86.59461 | 14809 ft | 399 kts | 28° |
| 2026-05-04 00:23 | 36.44725 | -86.57638 | 15381 ft | 403 kts | 28° |
| 2026-05-04 00:23 | 36.47120 | -86.55797 | 15934 ft | 407 kts | 27° |
| 2026-05-04 00:23 | 36.49537 | -86.53939 | 16498 ft | 410 kts | 27° |
| 2026-05-04 00:24 | 36.51976 | -86.52062 | 17045 ft | 414 kts | 27° |
| 2026-05-04 00:24 | 36.54436 | -86.50168 | 17573 ft | 417 kts | 27° |
| 2026-05-04 00:24 | 36.56911 | -86.48259 | 18105 ft | 421 kts | 27° |
| 2026-05-04 00:24 | 36.59471 | -86.46499 | 18580 ft | 421 kts | 20° |
| 2026-05-04 00:25 | 36.62184 | -86.45120 | 19036 ft | 422 kts | 17° |
| 2026-05-04 00:25 | 36.64931 | -86.43799 | 19497 ft | 425 kts | 17° |
| 2026-05-04 00:25 | 36.67692 | -86.42438 | 19944 ft | 428 kts | 18° |
| 2026-05-04 00:25 | 36.70463 | -86.41032 | 20372 ft | 432 kts | 18° |
| 2026-05-04 00:26 | 36.73250 | -86.39566 | 20745 ft | 438 kts | 20° |
| 2026-05-04 00:26 | 36.76002 | -86.37881 | 21193 ft | 442 kts | 22° |
| 2026-05-04 00:26 | 36.78733 | -86.36107 | 21635 ft | 444 kts | 23° |
| 2026-05-04 00:26 | 36.81473 | -86.34296 | 22043 ft | 447 kts | 23° |
| 2026-05-04 00:27 | 36.84233 | -86.32472 | 22438 ft | 450 kts | 23° |
| 2026-05-04 00:27 | 36.87015 | -86.30645 | 22814 ft | 453 kts | 22° |
| 2026-05-04 00:27 | 36.89817 | -86.28817 | 23198 ft | 455 kts | 22° |
| 2026-05-04 00:27 | 36.92639 | -86.26984 | 23580 ft | 458 kts | 22° |
| 2026-05-04 00:28 | 36.95478 | -86.25143 | 23880 ft | 461 kts | 22° |
| 2026-05-04 00:28 | 36.97368 | -86.23918 | 24063 ft | 464 kts | 22° |
| 2026-05-04 00:28 | 37.01207 | -86.21428 | 24495 ft | 466 kts | 22° |
| 2026-05-04 00:28 | 37.03114 | -86.20189 | 24717 ft | 467 kts | 22° |
| 2026-05-04 00:29 | 37.06000 | -86.18313 | 25035 ft | 468 kts | 22° |
| 2026-05-04 00:29 | 37.08899 | -86.16427 | 25320 ft | 471 kts | 21° |
| 2026-05-04 00:29 | 37.11818 | -86.14526 | 25592 ft | 473 kts | 21° |
| 2026-05-04 00:29 | 37.14746 | -86.12618 | 25872 ft | 475 kts | 21° |
| 2026-05-04 00:30 | 37.17685 | -86.10702 | 26167 ft | 477 kts | 21° |
| 2026-05-04 00:30 | 37.20636 | -86.08775 | 26411 ft | 479 kts | 21° |
| 2026-05-04 00:30 | 37.23603 | -86.06848 | 26712 ft | 479 kts | 20° |
| 2026-05-04 00:30 | 37.26601 | -86.05052 | 27102 ft | 476 kts | 18° |
| 2026-05-04 00:31 | 37.29608 | -86.03357 | 27563 ft | 472 kts | 17° |
| 2026-05-04 00:31 | 37.32615 | -86.01706 | 27987 ft | 470 kts | 16° |
| 2026-05-04 00:31 | 37.35614 | -86.00066 | 28346 ft | 470 kts | 16° |
| 2026-05-04 00:31 | 37.38613 | -85.98413 | 28708 ft | 470 kts | 16° |
| 2026-05-04 00:32 | 37.41601 | -85.96752 | 29143 ft | 470 kts | 16° |
| 2026-05-04 00:32 | 37.44585 | -85.95081 | 29507 ft | 470 kts | 16° |
| 2026-05-04 00:32 | 37.47570 | -85.93401 | 29896 ft | 469 kts | 16° |
| 2026-05-04 00:32 | 37.50540 | -85.91724 | 30284 ft | 467 kts | 16° |
| 2026-05-04 00:33 | 37.53501 | -85.90049 | 30648 ft | 465 kts | 16° |
| 2026-05-04 00:33 | 37.59378 | -85.86722 | 31377 ft | 461 kts | 15° |
| 2026-05-04 00:33 | 37.62268 | -85.85086 | 31696 ft | 460 kts | 15° |
| 2026-05-04 00:34 | 37.65223 | -85.83412 | 32085 ft | 459 kts | 15° |
| 2026-05-04 00:34 | 37.68127 | -85.81765 | 32480 ft | 456 kts | 15° |
| 2026-05-04 00:34 | 37.71010 | -85.80128 | 32858 ft | 453 kts | 15° |
| 2026-05-04 00:34 | 37.73882 | -85.78497 | 33183 ft | 452 kts | 15° |
| 2026-05-04 00:35 | 37.76714 | -85.76888 | 33490 ft | 451 kts | 15° |
| 2026-05-04 00:35 | 37.79568 | -85.75265 | 33843 ft | 449 kts | 14° |
| 2026-05-04 00:35 | 37.82419 | -85.73642 | 34162 ft | 447 kts | 14° |
| 2026-05-04 00:35 | 37.85254 | -85.72027 | 34357 ft | 448 kts | 15° |
| 2026-05-04 00:36 | 37.88108 | -85.70402 | 34532 ft | 450 kts | 14° |
| 2026-05-04 00:36 | 37.90971 | -85.68770 | 34700 ft | 452 kts | 14° |
| 2026-05-04 00:36 | 37.93841 | -85.67131 | 34906 ft | 452 kts | 15° |
| 2026-05-04 00:36 | 37.96707 | -85.65491 | 35095 ft | 452 kts | 15° |
| 2026-05-04 00:37 | 37.99582 | -85.63846 | 35261 ft | 453 kts | 15° |
| 2026-05-04 00:37 | 38.02455 | -85.62201 | 35435 ft | 454 kts | 15° |
| 2026-05-04 00:37 | 38.05336 | -85.60548 | 35619 ft | 455 kts | 15° |
| 2026-05-04 00:37 | 38.08275 | -85.59220 | 35740 ft | 439 kts | 0° |
| 2026-05-04 00:38 | 38.11242 | -85.59057 | 35935 ft | 420 kts | 345° |
| 2026-05-04 00:38 | 38.14057 | -85.59800 | 36076 ft | 407 kts | 333° |
| 2026-05-04 00:38 | 38.16637 | -85.61214 | 36186 ft | 404 kts | 328° |
| 2026-05-04 00:38 | 38.19179 | -85.62740 | 36297 ft | 405 kts | 328° |
| 2026-05-04 00:39 | 38.21728 | -85.64288 | 36443 ft | 406 kts | 328° |
| 2026-05-04 00:39 | 38.24281 | -85.65833 | 36616 ft | 406 kts | 328° |
| 2026-05-04 00:39 | 38.26842 | -85.67370 | 36764 ft | 407 kts | 328° |
| 2026-05-04 00:39 | 38.29412 | -85.68902 | 36906 ft | 408 kts | 328° |
| 2026-05-04 00:40 | 38.31996 | -85.70435 | 36977 ft | 410 kts | 328° |
| 2026-05-04 00:40 | 38.37192 | -85.73507 | 36989 ft | 411 kts | 329° |
| 2026-05-04 00:41 | 38.39103 | -85.74635 | 36985 ft | 410 kts | 329° |
| 2026-05-04 00:41 | 38.42937 | -85.76900 | 36987 ft | 408 kts | 328° |
| 2026-05-04 00:42 | 38.47347 | -85.79510 | 36999 ft | 407 kts | 328° |
| 2026-05-04 00:42 | 38.52474 | -85.82551 | 37001 ft | 406 kts | 328° |
| 2026-05-04 00:43 | 38.57593 | -85.85593 | 36998 ft | 405 kts | 328° |
| 2026-05-04 00:43 | 38.62714 | -85.88641 | 36991 ft | 406 kts | 328° |
| 2026-05-04 00:44 | 38.67838 | -85.91696 | 37006 ft | 407 kts | 328° |
| 2026-05-04 00:44 | 38.72976 | -85.94763 | 36983 ft | 407 kts | 328° |
| 2026-05-04 00:45 | 38.78115 | -85.97836 | 36976 ft | 408 kts | 328° |
| 2026-05-04 00:45 | 38.83260 | -86.00918 | 37008 ft | 409 kts | 328° |
| 2026-05-04 00:46 | 38.88419 | -86.04014 | 36987 ft | 409 kts | 328° |
| 2026-05-04 00:46 | 38.93585 | -86.07119 | 36976 ft | 410 kts | 328° |
| 2026-05-04 00:47 | 38.98748 | -86.10224 | 36984 ft | 410 kts | 328° |
| 2026-05-04 00:47 | 39.03920 | -86.13330 | 36979 ft | 410 kts | 328° |
| 2026-05-04 00:48 | 39.09096 | -86.16442 | 36985 ft | 411 kts | 329° |
| 2026-05-04 00:48 | 39.14287 | -86.19572 | 36979 ft | 411 kts | 329° |
| 2026-05-04 00:49 | 39.19469 | -86.22703 | 36981 ft | 411 kts | 329° |
| 2026-05-04 00:49 | 39.24652 | -86.25840 | 36976 ft | 411 kts | 329° |
| 2026-05-04 00:50 | 39.29838 | -86.28983 | 37000 ft | 411 kts | 329° |
| 2026-05-04 00:50 | 39.35021 | -86.32132 | 36984 ft | 412 kts | 329° |
| 2026-05-04 00:51 | 39.40185 | -86.35273 | 36971 ft | 413 kts | 329° |
| 2026-05-04 00:51 | 39.45381 | -86.38439 | 36960 ft | 413 kts | 329° |
| 2026-05-04 00:52 | 39.50586 | -86.41615 | 36958 ft | 413 kts | 329° |
| 2026-05-04 00:52 | 39.55788 | -86.44796 | 36952 ft | 415 kts | 329° |
| 2026-05-04 00:53 | 39.61012 | -86.47995 | 36950 ft | 415 kts | 329° |
| 2026-05-04 00:53 | 39.66244 | -86.51204 | 36954 ft | 416 kts | 329° |
| 2026-05-04 00:54 | 39.71483 | -86.54423 | 36951 ft | 416 kts | 329° |
| 2026-05-04 00:54 | 39.76723 | -86.57648 | 36972 ft | 416 kts | 330° |
| 2026-05-04 00:55 | 39.81934 | -86.60861 | 36950 ft | 417 kts | 330° |
| 2026-05-04 00:55 | 39.87184 | -86.64104 | 36943 ft | 418 kts | 330° |
| 2026-05-04 00:56 | 39.92431 | -86.67352 | 36939 ft | 418 kts | 330° |
| 2026-05-04 00:56 | 39.97680 | -86.70606 | 36934 ft | 418 kts | 330° |
| 2026-05-04 00:57 | 40.02937 | -86.73869 | 36938 ft | 418 kts | 330° |
| 2026-05-04 00:57 | 40.08194 | -86.77143 | 36925 ft | 419 kts | 330° |
| 2026-05-04 00:58 | 40.13458 | -86.80429 | 36920 ft | 419 kts | 330° |
| 2026-05-04 00:58 | 40.18715 | -86.83719 | 36915 ft | 419 kts | 330° |
| 2026-05-04 00:59 | 40.23979 | -86.87016 | 36915 ft | 420 kts | 330° |
| 2026-05-04 00:59 | 40.29252 | -86.90318 | 36907 ft | 420 kts | 330° |
| 2026-05-04 01:00 | 40.34523 | -86.93618 | 36912 ft | 419 kts | 330° |
| 2026-05-04 01:00 | 40.39752 | -86.96901 | 36902 ft | 419 kts | 330° |
| 2026-05-04 01:01 | 40.45005 | -87.00207 | 36935 ft | 419 kts | 330° |
| 2026-05-04 01:01 | 40.50263 | -87.03524 | 36904 ft | 419 kts | 330° |
| 2026-05-04 01:02 | 40.55557 | -87.06857 | 36898 ft | 419 kts | 332° |
| 2026-05-04 01:02 | 40.60933 | -87.09756 | 36901 ft | 421 kts | 335° |
| 2026-05-04 01:03 | 40.66414 | -87.12512 | 36889 ft | 421 kts | 335° |
| 2026-05-04 01:03 | 40.71869 | -87.15312 | 36886 ft | 421 kts | 334° |
| 2026-05-04 01:04 | 40.77356 | -87.18165 | 36883 ft | 421 kts | 334° |
| 2026-05-04 01:04 | 40.82803 | -87.21000 | 36881 ft | 421 kts | 334° |
| 2026-05-04 01:05 | 40.88218 | -87.23817 | 36909 ft | 421 kts | 334° |
| 2026-05-04 01:05 | 40.93704 | -87.26678 | 36880 ft | 421 kts | 334° |
| 2026-05-04 01:06 | 40.99155 | -87.29528 | 36862 ft | 421 kts | 334° |
| 2026-05-04 01:06 | 41.04606 | -87.32385 | 36866 ft | 421 kts | 334° |
| 2026-05-04 01:07 | 41.10051 | -87.35245 | 36851 ft | 420 kts | 334° |
| 2026-05-04 01:07 | 41.15451 | -87.38084 | 36862 ft | 420 kts | 334° |
| 2026-05-04 01:08 | 41.20881 | -87.40939 | 36844 ft | 419 kts | 334° |
| 2026-05-04 01:08 | 41.26303 | -87.43794 | 36843 ft | 419 kts | 334° |
| 2026-05-04 01:09 | 41.31726 | -87.46657 | 36840 ft | 419 kts | 334° |
| 2026-05-04 01:09 | 41.37143 | -87.49524 | 36842 ft | 419 kts | 334° |
| 2026-05-04 01:10 | 41.41638 | -87.51908 | 36833 ft | 419 kts | 334° |
| 2026-05-04 01:10 | 41.47046 | -87.54780 | 36834 ft | 418 kts | 334° |
| 2026-05-04 01:11 | 41.52457 | -87.57659 | 36834 ft | 418 kts | 334° |
| 2026-05-04 01:11 | 41.57867 | -87.60543 | 36839 ft | 419 kts | 334° |
| 2026-05-04 01:12 | 41.63278 | -87.63433 | 36824 ft | 419 kts | 334° |
| 2026-05-04 01:12 | 41.68687 | -87.66326 | 36801 ft | 418 kts | 334° |
| 2026-05-04 01:13 | 41.74043 | -87.69196 | 36804 ft | 418 kts | 334° |
| 2026-05-04 01:13 | 41.79450 | -87.72100 | 36790 ft | 418 kts | 334° |
| 2026-05-04 01:14 | 41.84838 | -87.74998 | 36796 ft | 417 kts | 334° |
| 2026-05-04 01:14 | 41.90219 | -87.77898 | 36796 ft | 416 kts | 334° |
| 2026-05-04 01:15 | 41.95221 | -87.80599 | 36775 ft | 416 kts | 334° |
| 2026-05-04 01:15 | 42.00526 | -87.83469 | 36778 ft | 416 kts | 335° |
| 2026-05-04 01:16 | 42.05880 | -87.86370 | 36788 ft | 416 kts | 335° |
| 2026-05-04 01:16 | 42.11217 | -87.89268 | 36785 ft | 416 kts | 335° |
| 2026-05-04 01:17 | 42.16414 | -87.92097 | 36789 ft | 416 kts | 335° |
| 2026-05-04 01:17 | 42.21783 | -87.95012 | 36774 ft | 417 kts | 336° |
| 2026-05-04 01:18 | 42.27347 | -87.97288 | 36772 ft | 421 kts | 341° |
| 2026-05-04 01:18 | 42.32077 | -87.98948 | 36761 ft | 422 kts | 342° |
| 2026-05-04 01:19 | 42.37759 | -88.00961 | 36759 ft | 422 kts | 341° |
| 2026-05-04 01:19 | 42.43439 | -88.03027 | 36764 ft | 423 kts | 341° |
| 2026-05-04 01:20 | 42.48941 | -88.05053 | 36771 ft | 423 kts | 341° |
| 2026-05-04 01:20 | 42.54633 | -88.07155 | 36765 ft | 424 kts | 341° |
| 2026-05-04 01:21 | 42.60241 | -88.09229 | 36770 ft | 424 kts | 341° |
| 2026-05-04 01:21 | 42.65979 | -88.11364 | 36763 ft | 423 kts | 341° |
| 2026-05-04 01:22 | 42.71651 | -88.13468 | 36763 ft | 422 kts | 341° |
| 2026-05-04 01:22 | 42.77317 | -88.15578 | 36772 ft | 421 kts | 341° |
| 2026-05-04 01:23 | 42.82968 | -88.17690 | 36764 ft | 421 kts | 341° |
| 2026-05-04 01:23 | 42.88620 | -88.19806 | 36759 ft | 421 kts | 341° |
| 2026-05-04 01:24 | 42.94269 | -88.21926 | 36756 ft | 421 kts | 341° |
| 2026-05-04 01:24 | 42.99884 | -88.24038 | 36756 ft | 421 kts | 341° |
| 2026-05-04 01:25 | 43.05527 | -88.26164 | 36764 ft | 421 kts | 341° |
| 2026-05-04 01:25 | 43.11014 | -88.28769 | 36757 ft | 414 kts | 326° |
| 2026-05-04 01:25 | 43.13286 | -88.31139 | 36739 ft | 411 kts | 314° |
| 2026-05-04 01:26 | 43.15160 | -88.34088 | 36776 ft | 410 kts | 309° |
| 2026-05-04 01:26 | 43.18714 | -88.40220 | 36746 ft | 411 kts | 308° |
| 2026-05-04 01:27 | 43.22254 | -88.46379 | 36755 ft | 411 kts | 309° |
| 2026-05-04 01:27 | 43.25819 | -88.52525 | 36730 ft | 412 kts | 309° |
| 2026-05-04 01:28 | 43.29397 | -88.58666 | 36728 ft | 412 kts | 309° |
| 2026-05-04 01:28 | 43.32980 | -88.64819 | 36732 ft | 412 kts | 309° |
| 2026-05-04 01:29 | 43.36557 | -88.70974 | 36730 ft | 412 kts | 309° |
| 2026-05-04 01:29 | 43.40134 | -88.77145 | 36732 ft | 413 kts | 309° |
| 2026-05-04 01:30 | 43.43710 | -88.83324 | 36740 ft | 413 kts | 309° |
| 2026-05-04 01:30 | 43.47283 | -88.89513 | 36723 ft | 412 kts | 309° |
| 2026-05-04 01:31 | 43.50850 | -88.95705 | 36724 ft | 412 kts | 309° |
| 2026-05-04 01:31 | 43.54410 | -89.01898 | 36726 ft | 412 kts | 309° |
| 2026-05-04 01:32 | 43.57965 | -89.08098 | 36725 ft | 412 kts | 309° |
| 2026-05-04 01:32 | 43.61519 | -89.14306 | 36724 ft | 412 kts | 309° |
| 2026-05-04 01:33 | 43.65040 | -89.20483 | 36733 ft | 412 kts | 308° |
| 2026-05-04 01:33 | 43.68581 | -89.26713 | 36713 ft | 412 kts | 308° |
| 2026-05-04 01:34 | 43.72126 | -89.32938 | 36723 ft | 411 kts | 308° |
| 2026-05-04 01:34 | 43.75660 | -89.39155 | 36716 ft | 411 kts | 308° |
| 2026-05-04 01:35 | 43.79194 | -89.45391 | 36713 ft | 411 kts | 308° |
| 2026-05-04 01:35 | 43.80957 | -89.48506 | 36574 ft | 413 kts | 308° |
| 2026-05-04 01:35 | 43.82730 | -89.51640 | 36299 ft | 413 kts | 308° |
| 2026-05-04 01:35 | 43.84498 | -89.54771 | 36053 ft | 410 kts | 308° |
| 2026-05-04 01:36 | 43.86252 | -89.57883 | 35806 ft | 409 kts | 308° |
| 2026-05-04 01:36 | 43.89755 | -89.64110 | 35718 ft | 411 kts | 308° |
| 2026-05-04 01:37 | 43.93263 | -89.70363 | 35719 ft | 411 kts | 308° |
| 2026-05-04 01:37 | 43.96763 | -89.76615 | 35708 ft | 409 kts | 308° |
| 2026-05-04 01:38 | 44.00222 | -89.82810 | 35711 ft | 408 kts | 308° |
| 2026-05-04 01:38 | 44.03688 | -89.89033 | 35734 ft | 407 kts | 308° |
| 2026-05-04 01:39 | 44.07153 | -89.95259 | 35716 ft | 407 kts | 308° |
| 2026-05-04 01:39 | 44.10678 | -90.01410 | 35693 ft | 406 kts | 310° |
| 2026-05-04 01:40 | 44.14275 | -90.07476 | 35709 ft | 406 kts | 310° |
| 2026-05-04 01:40 | 44.17857 | -90.13561 | 35711 ft | 406 kts | 309° |
| 2026-05-04 01:41 | 44.21426 | -90.19672 | 35717 ft | 407 kts | 309° |
| 2026-05-04 01:41 | 44.24996 | -90.25810 | 35725 ft | 408 kts | 309° |
| 2026-05-04 01:42 | 44.28566 | -90.31965 | 35724 ft | 408 kts | 309° |
| 2026-05-04 01:42 | 44.32135 | -90.38130 | 35729 ft | 408 kts | 309° |
| 2026-05-04 01:43 | 44.35440 | -90.44564 | 35709 ft | 409 kts | 295° |
| 2026-05-04 01:43 | 44.37548 | -90.51955 | 35734 ft | 410 kts | 294° |
| 2026-05-04 01:44 | 44.39702 | -90.59345 | 35734 ft | 410 kts | 294° |
| 2026-05-04 01:44 | 44.41883 | -90.66730 | 35737 ft | 411 kts | 294° |
| 2026-05-04 01:45 | 44.44072 | -90.74127 | 35730 ft | 411 kts | 294° |
| 2026-05-04 01:45 | 44.47347 | -90.85213 | 35646 ft | 410 kts | 294° |
| 2026-05-04 01:46 | 44.48441 | -90.88928 | 35073 ft | 412 kts | 294° |
| 2026-05-04 01:46 | 44.49528 | -90.92633 | 34419 ft | 410 kts | 294° |
| 2026-05-04 01:46 | 44.50609 | -90.96323 | 33748 ft | 409 kts | 294° |
| 2026-05-04 01:46 | 44.51688 | -91.00010 | 32951 ft | 408 kts | 295° |
| 2026-05-04 01:47 | 44.52762 | -91.03685 | 32165 ft | 407 kts | 295° |
| 2026-05-04 01:47 | 44.53834 | -91.07359 | 31395 ft | 406 kts | 295° |
| 2026-05-04 01:47 | 44.54903 | -91.11028 | 30598 ft | 407 kts | 295° |
| 2026-05-04 01:47 | 44.55978 | -91.14720 | 29718 ft | 409 kts | 296° |
| 2026-05-04 01:48 | 44.57045 | -91.18394 | 28736 ft | 404 kts | 295° |
| 2026-05-04 01:48 | 44.58092 | -91.22010 | 27789 ft | 397 kts | 295° |
| 2026-05-04 01:48 | 44.59128 | -91.25593 | 26824 ft | 393 kts | 295° |
| 2026-05-04 01:48 | 44.60133 | -91.29068 | 26100 ft | 384 kts | 295° |
| 2026-05-04 01:49 | 44.61127 | -91.32510 | 25397 ft | 376 kts | 295° |
| 2026-05-04 01:49 | 44.62098 | -91.35875 | 24722 ft | 368 kts | 294° |
| 2026-05-04 01:49 | 44.63049 | -91.39165 | 24076 ft | 360 kts | 294° |
| 2026-05-04 01:49 | 44.63982 | -91.42393 | 23489 ft | 353 kts | 294° |
| 2026-05-04 01:50 | 44.64900 | -91.45570 | 22946 ft | 350 kts | 294° |
| 2026-05-04 01:50 | 44.65807 | -91.48716 | 22320 ft | 348 kts | 294° |
| 2026-05-04 01:50 | 44.66422 | -91.50849 | 21903 ft | 349 kts | 294° |
| 2026-05-04 01:50 | 44.67631 | -91.55051 | 21074 ft | 351 kts | 293° |
| 2026-05-04 01:51 | 44.68248 | -91.57201 | 20635 ft | 352 kts | 293° |
| 2026-05-04 01:51 | 44.69152 | -91.60355 | 20001 ft | 344 kts | 293° |
| 2026-05-04 01:51 | 44.70034 | -91.63442 | 19382 ft | 336 kts | 293° |
| 2026-05-04 01:51 | 44.70897 | -91.66465 | 18781 ft | 333 kts | 293° |
| 2026-05-04 01:52 | 44.71747 | -91.69440 | 18201 ft | 331 kts | 293° |
| 2026-05-04 01:52 | 44.72601 | -91.72439 | 17572 ft | 329 kts | 292° |
| 2026-05-04 01:52 | 44.73433 | -91.75365 | 17375 ft | 316 kts | 292° |
| 2026-05-04 01:52 | 44.74238 | -91.78199 | 17221 ft | 312 kts | 292° |
| 2026-05-04 01:53 | 44.75063 | -91.81098 | 17091 ft | 324 kts | 292° |
| 2026-05-04 01:53 | 44.75907 | -91.84069 | 16930 ft | 328 kts | 292° |
| 2026-05-04 01:53 | 44.76748 | -91.87034 | 16757 ft | 325 kts | 292° |
| 2026-05-04 01:53 | 44.77579 | -91.90024 | 16281 ft | 329 kts | 292° |
| 2026-05-04 01:54 | 44.78398 | -91.93032 | 15832 ft | 329 kts | 291° |
| 2026-05-04 01:54 | 44.79210 | -91.96034 | 15382 ft | 327 kts | 291° |
| 2026-05-04 01:54 | 44.80011 | -91.98999 | 14924 ft | 320 kts | 291° |
| 2026-05-04 01:54 | 44.80792 | -92.01890 | 14482 ft | 312 kts | 291° |
| 2026-05-04 01:55 | 44.81563 | -92.04745 | 14032 ft | 312 kts | 291° |
| 2026-05-04 01:55 | 44.82332 | -92.07591 | 13601 ft | 311 kts | 291° |
| 2026-05-04 01:55 | 44.83100 | -92.10435 | 13129 ft | 310 kts | 291° |
| 2026-05-04 01:55 | 44.83864 | -92.13266 | 12701 ft | 308 kts | 291° |
| 2026-05-04 01:56 | 44.84621 | -92.16072 | 12288 ft | 305 kts | 291° |
| 2026-05-04 01:56 | 44.85318 | -92.18890 | 11895 ft | 303 kts | 283° |
| 2026-05-04 01:56 | 44.85537 | -92.21819 | 11606 ft | 299 kts | 276° |
| 2026-05-04 01:56 | 44.85684 | -92.24730 | 11301 ft | 297 kts | 276° |
| 2026-05-04 01:57 | 44.85846 | -92.27585 | 10974 ft | 285 kts | 276° |
| 2026-05-04 01:57 | 44.86007 | -92.30307 | 10691 ft | 273 kts | 276° |
| 2026-05-04 01:57 | 44.86161 | -92.32914 | 10422 ft | 261 kts | 276° |
| 2026-05-04 01:57 | 44.86287 | -92.35433 | 10202 ft | 254 kts | 275° |
| 2026-05-04 01:58 | 44.86406 | -92.37906 | 9933 ft | 251 kts | 275° |
| 2026-05-04 01:58 | 44.86524 | -92.40351 | 9669 ft | 249 kts | 275° |
| 2026-05-04 01:58 | 44.86642 | -92.42780 | 9398 ft | 248 kts | 275° |
| 2026-05-04 01:58 | 44.86759 | -92.45202 | 9128 ft | 246 kts | 275° |
| 2026-05-04 01:59 | 44.86861 | -92.47606 | 8868 ft | 245 kts | 270° |
| 2026-05-04 01:59 | 44.86486 | -92.49922 | 8604 ft | 240 kts | 250° |
| 2026-05-04 01:59 | 44.85769 | -92.51997 | 8389 ft | 230 kts | 246° |
| 2026-05-04 01:59 | 44.85033 | -92.53952 | 8141 ft | 222 kts | 246° |
| 2026-05-04 02:00 | 44.84320 | -92.55857 | 7913 ft | 218 kts | 246° |
| 2026-05-04 02:00 | 44.83622 | -92.57743 | 7698 ft | 217 kts | 246° |
| 2026-05-04 02:00 | 44.82928 | -92.59627 | 7484 ft | 217 kts | 246° |
| 2026-05-04 02:00 | 44.82236 | -92.61510 | 7267 ft | 216 kts | 246° |
| 2026-05-04 02:01 | 44.81545 | -92.63395 | 7084 ft | 217 kts | 246° |
| 2026-05-04 02:01 | 44.80849 | -92.65291 | 7017 ft | 219 kts | 246° |
| 2026-05-04 02:01 | 44.80144 | -92.67211 | 6992 ft | 220 kts | 246° |
| 2026-05-04 02:01 | 44.79449 | -92.69101 | 6979 ft | 216 kts | 245° |
| 2026-05-04 02:02 | 44.78762 | -92.70968 | 6984 ft | 215 kts | 245° |
| 2026-05-04 02:02 | 44.78084 | -92.72813 | 6981 ft | 212 kts | 246° |
| 2026-05-04 02:02 | 44.77425 | -92.74598 | 6979 ft | 198 kts | 246° |
| 2026-05-04 02:02 | 44.77006 | -92.76347 | 6877 ft | 184 kts | 266° |
| 2026-05-04 02:03 | 44.76937 | -92.78098 | 6697 ft | 180 kts | 267° |
| 2026-05-04 02:03 | 44.76849 | -92.79847 | 6513 ft | 178 kts | 266° |
| 2026-05-04 02:03 | 44.76757 | -92.81582 | 6317 ft | 177 kts | 266° |
| 2026-05-04 02:03 | 44.76667 | -92.83292 | 6138 ft | 173 kts | 266° |
| 2026-05-04 02:04 | 44.76576 | -92.84994 | 5965 ft | 177 kts | 266° |
| 2026-05-04 02:04 | 44.76482 | -92.86735 | 5771 ft | 179 kts | 266° |
| 2026-05-04 02:04 | 44.76387 | -92.88480 | 5577 ft | 178 kts | 266° |
| 2026-05-04 02:04 | 44.76292 | -92.90215 | 5387 ft | 177 kts | 266° |
| 2026-05-04 02:05 | 44.76199 | -92.91942 | 5212 ft | 177 kts | 266° |
| 2026-05-04 02:05 | 44.76146 | -92.93665 | 5026 ft | 177 kts | 277° |
| 2026-05-04 02:05 | 44.76672 | -92.95226 | 4848 ft | 180 kts | 302° |
| 2026-05-04 02:05 | 44.77299 | -92.96710 | 4604 ft | 179 kts | 296° |
| 2026-05-04 02:06 | 44.77927 | -92.98228 | 4348 ft | 179 kts | 298° |
| 2026-05-04 02:06 | 44.78575 | -92.99723 | 4118 ft | 179 kts | 298° |
| 2026-05-04 02:06 | 44.79220 | -93.01215 | 3878 ft | 179 kts | 298° |
| 2026-05-04 02:06 | 44.79862 | -93.02709 | 3630 ft | 177 kts | 298° |
| 2026-05-04 02:07 | 44.80496 | -93.04185 | 3410 ft | 176 kts | 298° |
| 2026-05-04 02:07 | 44.81132 | -93.05664 | 3178 ft | 175 kts | 298° |
| 2026-05-04 02:07 | 44.81736 | -93.07070 | 2975 ft | 158 kts | 298° |
| 2026-05-04 02:07 | 44.82287 | -93.08352 | 2749 ft | 148 kts | 298° |
| 2026-05-04 02:08 | 44.82786 | -93.09507 | 2561 ft | 141 kts | 298° |
| 2026-05-04 02:08 | 44.83301 | -93.10707 | 2374 ft | 138 kts | 298° |
| 2026-05-04 02:08 | 44.83796 | -93.11860 | 2192 ft | 139 kts | 298° |
| 2026-05-04 02:08 | 44.84304 | -93.13042 | 2008 ft | 143 kts | 298° |
| 2026-05-04 02:09 | 44.84821 | -93.14244 | 1825 ft | 143 kts | 298° |
| 2026-05-04 02:09 | 44.85337 | -93.15444 | 1632 ft | 143 kts | 300° |
| 2026-05-04 02:09 | 44.85841 | -93.16665 | 1448 ft | 145 kts | 297° |
| 2026-05-04 02:09 | 44.86401 | -93.17872 | 1193 ft | 150 kts | 300° |
| 2026-05-04 02:10 | 44.86910 | -93.19094 | 993 ft | 141 kts | 298° |
| 2026-05-04 02:10 | 44.87417 | -93.20287 | 840 ft | 143 kts | 300° |
| 2026-05-04 02:10 | 44.87892 | -93.21369 | 830 ft | 113 kts | 299° |
| 2026-05-04 02:10 | 44.88190 | -93.22049 | 835 ft | 47 kts | 301° |
| 2026-05-04 02:11 | 44.88309 | -93.22325 | 827 ft | 22 kts | 302° |
| 2026-05-04 02:11 | 44.88364 | -93.22430 | 828 ft | 4 kts | 321° |
| 2026-05-04 02:11 | 44.88410 | -93.22437 | 831 ft | 11 kts | 19° |
| 2026-05-04 02:11 | 44.88443 | -93.22405 | 832 ft | 4 kts | 47° |
| 2026-05-04 02:12 | 44.88438 | -93.22327 | 833 ft | 12 kts | 119° |
| 2026-05-04 02:12 | 44.88397 | -93.22232 | 832 ft | 11 kts | 122° |
| 2026-05-04 02:12 | 44.88344 | -93.22111 | 833 ft | 14 kts | 121° |
| 2026-05-04 02:12 | 44.88301 | -93.22008 | 833 ft | 9 kts | 115° |
| 2026-05-04 02:13 | 44.88317 | -93.21927 | 831 ft | 11 kts | 39° |
| 2026-05-04 02:13 | 44.88374 | -93.21853 | 837 ft | 11 kts | 47° |
| 2026-05-04 02:13 | 44.88429 | -93.21779 | 836 ft | 11 kts | 43° |
| 2026-05-04 02:13 | 44.88482 | -93.21702 | 837 ft | 11 kts | 45° |
| 2026-05-04 02:14 | 44.88513 | -93.21612 | 843 ft | 11 kts | 91° |
| 2026-05-04 02:14 | 44.88487 | -93.21518 | 837 ft | 11 kts | 126° |
| 2026-05-04 02:14 | 44.88448 | -93.21425 | 835 ft | 9 kts | 94° |
| 2026-05-04 02:14 | 44.88474 | -93.21346 | 833 ft | 6 kts | 55° |
| 2026-05-04 02:15 | 44.88484 | -93.21327 | 831 ft | 2 kts | 56° |
| 2026-05-04 02:15 | 44.88485 | -93.21324 | 832 ft | 0 kts | 56° |